createdAt,value
2022-09-02T00:01:39.941Z,17.70
2022-09-02T00:04:09.925Z,17.70
2022-09-02T00:06:36.836Z,17.70
2022-09-02T00:09:05.318Z,17.70
2022-09-02T00:11:32.761Z,17.70
2022-09-02T00:14:00.579Z,17.60
2022-09-02T00:16:27.390Z,17.70
2022-09-02T00:18:54.175Z,17.70
2022-09-02T00:21:21.201Z,17.70
2022-09-02T00:23:48.220Z,17.70
2022-09-02T00:26:14.981Z,17.70
2022-09-02T00:28:48.878Z,17.80
2022-09-02T00:31:17.896Z,17.70
2022-09-02T00:33:44.694Z,17.80
2022-09-02T00:36:11.704Z,17.80
2022-09-02T00:38:39.821Z,17.80
2022-09-02T00:41:08.538Z,17.80
2022-09-02T00:43:39.974Z,17.80
2022-09-02T00:46:06.926Z,17.80
2022-09-02T00:48:36.214Z,17.80
2022-09-02T00:51:04.204Z,17.80
2022-09-02T00:53:33.634Z,17.80
2022-09-02T00:56:00.933Z,17.80
2022-09-02T00:58:30.295Z,17.80
2022-09-02T01:00:57.745Z,17.70
2022-09-02T01:03:30.063Z,17.80
2022-09-02T01:05:57.297Z,17.80
2022-09-02T01:08:31.013Z,17.70
2022-09-02T01:10:58.094Z,17.70
2022-09-02T01:13:27.671Z,17.70
2022-09-02T01:15:56.656Z,17.70
2022-09-02T01:18:29.399Z,17.70
2022-09-02T01:20:57.852Z,17.70
2022-09-02T01:23:24.570Z,17.70
2022-09-02T01:25:52.539Z,17.60
2022-09-02T01:28:19.555Z,17.60
2022-09-02T01:30:50.771Z,17.60
2022-09-02T01:33:18.501Z,17.60
2022-09-02T01:35:45.402Z,17.60
2022-09-02T01:38:12.479Z,17.60
2022-09-02T01:40:39.413Z,17.60
2022-09-02T01:43:09.623Z,17.50
2022-09-02T01:45:37.052Z,17.50
2022-09-02T01:48:05.540Z,17.50
2022-09-02T01:50:32.456Z,17.50
2022-09-02T01:53:01.664Z,17.50
2022-09-02T01:55:28.405Z,17.60
2022-09-02T01:57:55.465Z,17.60
2022-09-02T02:00:23.053Z,17.50
2022-09-02T02:02:49.987Z,17.50
2022-09-02T02:05:17.108Z,17.60
2022-09-02T02:07:44.352Z,17.60
2022-09-02T02:10:11.598Z,17.60
2022-09-02T02:12:38.826Z,17.60
2022-09-02T02:15:10.703Z,17.60
2022-09-02T02:17:37.576Z,17.60
2022-09-02T02:20:05.109Z,17.50
2022-09-02T02:22:32.193Z,17.50
2022-09-02T02:24:59.029Z,17.40
2022-09-02T02:27:25.808Z,17.50
2022-09-02T02:29:53.806Z,17.50
2022-09-02T02:32:21.555Z,17.40
2022-09-02T02:34:48.255Z,17.50
2022-09-02T02:37:15.380Z,17.40
2022-09-02T02:39:42.498Z,17.40
2022-09-02T02:42:09.291Z,17.40
2022-09-02T02:44:36.144Z,17.40
2022-09-02T02:47:03.054Z,17.40
2022-09-02T02:49:29.882Z,17.50
2022-09-02T02:51:56.598Z,17.50
2022-09-02T02:54:23.351Z,17.40
2022-09-02T02:56:55.846Z,17.50
2022-09-02T02:59:22.616Z,17.40
2022-09-02T03:01:49.419Z,17.40
2022-09-02T03:04:16.217Z,17.40
2022-09-02T03:06:42.955Z,17.40
2022-09-02T03:09:09.687Z,17.40
2022-09-02T03:11:36.347Z,17.40
2022-09-02T03:14:03.114Z,17.40
2022-09-02T03:16:29.913Z,17.40
2022-09-02T03:18:56.711Z,17.40
2022-09-02T03:21:23.382Z,17.40
2022-09-02T03:23:50.170Z,17.40
2022-09-02T03:26:19.112Z,17.30
2022-09-02T03:28:47.572Z,17.30
2022-09-02T03:31:16.728Z,17.30
2022-09-02T03:33:43.553Z,17.30
2022-09-02T03:36:22.851Z,17.30
2022-09-02T03:38:49.568Z,17.40
2022-09-02T03:41:16.509Z,17.40
2022-09-02T03:43:43.195Z,17.30
2022-09-02T03:46:10.246Z,17.30
2022-09-02T03:48:37.036Z,17.40
2022-09-02T03:51:03.793Z,17.40
2022-09-02T03:53:30.731Z,17.40
2022-09-02T03:55:57.487Z,17.30
2022-09-02T03:58:24.297Z,17.30
2022-09-02T04:00:52.673Z,17.30
2022-09-02T04:03:20.485Z,17.40
2022-09-02T04:05:49.091Z,17.30
2022-09-02T04:08:15.774Z,17.30
2022-09-02T04:10:42.587Z,17.30
2022-09-02T04:13:09.307Z,17.30
2022-09-02T04:15:39.890Z,17.30
2022-09-02T04:18:06.620Z,17.30
2022-09-02T04:20:33.355Z,17.20
2022-09-02T04:23:00.139Z,17.30
2022-09-02T04:25:28.067Z,17.30
2022-09-02T04:27:54.734Z,17.20
2022-09-02T04:30:21.600Z,17.30
2022-09-02T04:32:48.587Z,17.30
2022-09-02T04:35:15.462Z,17.20
2022-09-02T04:37:42.151Z,17.30
2022-09-02T04:40:09.838Z,17.20
2022-09-02T04:42:36.844Z,17.30
2022-09-02T04:45:03.663Z,17.20
2022-09-02T04:47:30.846Z,17.20
2022-09-02T04:49:58.440Z,17.20
2022-09-02T04:52:25.152Z,17.20
2022-09-02T04:54:51.903Z,17.20
2022-09-02T04:57:18.631Z,17.20
2022-09-02T04:59:45.403Z,17.20
2022-09-02T05:02:12.279Z,17.20
2022-09-02T05:04:39.126Z,17.20
2022-09-02T05:07:06.055Z,17.20
2022-09-02T05:09:32.976Z,17.20
2022-09-02T05:12:02.216Z,17.20
2022-09-02T05:14:29.512Z,17.20
2022-09-02T05:16:57.885Z,17.20
2022-09-02T05:19:24.665Z,17.20
2022-09-02T05:21:53.371Z,17.20
2022-09-02T05:24:23.308Z,17.20
2022-09-02T05:26:53.087Z,17.20
2022-09-02T05:29:20.633Z,17.20
2022-09-02T05:31:48.139Z,17.20
2022-09-02T05:34:15.254Z,17.20
2022-09-02T05:36:41.939Z,17.20
2022-09-02T05:39:09.395Z,17.20
2022-09-02T05:41:36.152Z,17.20
2022-09-02T05:44:03.889Z,17.20
2022-09-02T05:46:30.701Z,17.20
2022-09-02T05:49:07.022Z,17.30
2022-09-02T05:51:40.976Z,17.30
2022-09-02T05:54:08.996Z,17.30
2022-09-02T05:56:38.161Z,17.30
2022-09-02T05:59:06.973Z,17.40
2022-09-02T06:01:34.938Z,17.40
2022-09-02T06:04:02.391Z,17.50
2022-09-02T06:06:30.030Z,17.50
2022-09-02T06:08:56.823Z,17.50
2022-09-02T06:11:23.648Z,17.50
2022-09-02T06:13:52.553Z,17.60
2022-09-02T06:16:20.391Z,17.60
2022-09-02T06:18:47.582Z,17.60
2022-09-02T06:21:14.909Z,17.60
2022-09-02T06:23:41.832Z,17.70
2022-09-02T06:26:09.439Z,17.70
2022-09-02T06:28:36.234Z,17.70
2022-09-02T06:31:15.224Z,17.70
2022-09-02T06:33:43.039Z,17.70
2022-09-02T06:36:11.107Z,17.80
2022-09-02T06:38:42.643Z,17.80
2022-09-02T06:41:13.736Z,17.80
2022-09-02T06:43:42.620Z,17.90
2022-09-02T06:46:15.746Z,18.00
2022-09-02T06:48:42.486Z,18.00
2022-09-02T06:51:09.197Z,18.10
2022-09-02T06:53:35.915Z,18.20
2022-09-02T06:56:02.779Z,18.30
2022-09-02T06:58:29.567Z,18.30
2022-09-02T07:00:56.488Z,18.40
2022-09-02T07:03:42.043Z,18.40
2022-09-02T07:06:10.799Z,18.40
2022-09-02T07:08:38.811Z,18.50
2022-09-02T07:11:06.119Z,18.50
2022-09-02T07:13:33.474Z,18.50
2022-09-02T07:16:00.820Z,18.50
2022-09-02T07:18:28.094Z,18.60
2022-09-02T07:20:54.807Z,18.60
2022-09-02T07:23:21.535Z,18.70
2022-09-02T07:25:48.299Z,18.70
2022-09-02T07:28:15.028Z,18.70
2022-09-02T07:30:42.964Z,18.80
2022-09-02T07:33:14.525Z,18.80
2022-09-02T07:35:42.601Z,18.80
2022-09-02T07:38:10.231Z,18.90
2022-09-02T07:40:37.871Z,18.90
2022-09-02T07:43:05.985Z,19.00
2022-09-02T07:45:33.047Z,19.00
2022-09-02T07:48:00.080Z,19.00
2022-09-02T07:50:27.164Z,19.20
2022-09-02T07:52:55.013Z,19.30
2022-09-02T07:55:22.490Z,19.30
2022-09-02T07:57:49.456Z,19.40
2022-09-02T08:00:16.716Z,19.40
2022-09-02T08:02:44.596Z,19.50
2022-09-02T08:05:12.018Z,19.60
2022-09-02T08:07:39.034Z,19.70
2022-09-02T08:10:07.241Z,19.80
2022-09-02T08:12:33.969Z,19.90
2022-09-02T08:15:00.767Z,20.00
2022-09-02T08:17:27.507Z,20.10
2022-09-02T08:19:54.382Z,20.30
2022-09-02T08:22:21.078Z,20.50
2022-09-02T08:24:47.839Z,20.60
2022-09-02T08:27:14.644Z,20.60
2022-09-02T08:29:41.468Z,20.70
2022-09-02T08:32:08.286Z,20.70
2022-09-02T08:34:35.154Z,20.70
2022-09-02T08:37:01.841Z,20.70
2022-09-02T08:39:28.633Z,20.80
2022-09-02T08:42:18.211Z,20.80
2022-09-02T08:44:45.026Z,20.90
2022-09-02T08:47:15.412Z,20.90
2022-09-02T08:49:43.914Z,20.90
2022-09-02T08:52:12.799Z,21.00
2022-09-02T08:54:53.568Z,21.10
2022-09-02T08:57:20.381Z,21.20
2022-09-02T08:59:48.562Z,21.20
2022-09-02T09:02:22.462Z,21.20
2022-09-02T09:05:13.593Z,21.30
2022-09-02T09:08:14.543Z,21.40
2022-09-02T09:10:59.207Z,21.40
2022-09-02T09:13:51.619Z,21.40
2022-09-02T09:16:58.046Z,21.40
2022-09-02T09:19:49.415Z,21.60
2022-09-02T09:22:18.605Z,21.70
2022-09-02T09:24:51.271Z,21.70
2022-09-02T09:27:19.866Z,21.70
2022-09-02T09:29:49.107Z,21.90
2022-09-02T09:32:15.812Z,21.90
2022-09-02T09:35:09.146Z,22.00
2022-09-02T09:37:38.746Z,22.20
2022-09-02T09:40:23.644Z,22.40
2022-09-02T09:45:32.685Z,22.60
2022-09-02T09:48:25.533Z,22.50
2022-09-02T09:50:55.422Z,22.70
2022-09-02T09:53:27.262Z,22.70
2022-09-02T09:55:57.810Z,22.80
2022-09-02T09:58:30.821Z,22.90
2022-09-02T10:01:00.622Z,23.00
2022-09-02T10:03:32.891Z,23.10
2022-09-02T10:06:05.928Z,23.20
2022-09-02T10:08:32.718Z,23.50
2022-09-02T10:11:01.732Z,23.50
2022-09-02T10:13:30.952Z,23.70
2022-09-02T10:16:12.915Z,23.80
2022-09-02T10:18:53.511Z,23.90
2022-09-02T10:21:45.246Z,23.90
2022-09-02T10:24:27.136Z,24.00
2022-09-02T10:26:55.199Z,24.00
2022-09-02T10:29:30.988Z,24.00
2022-09-02T10:32:12.803Z,24.10
2022-09-02T10:35:20.647Z,24.20
2022-09-02T10:38:11.179Z,24.30
2022-09-02T10:40:49.964Z,24.40
2022-09-02T10:43:35.418Z,24.60
2022-09-02T10:46:02.181Z,24.50
2022-09-02T10:48:40.875Z,24.70
2022-09-02T10:51:10.607Z,24.50
2022-09-02T10:54:03.311Z,24.50
2022-09-02T10:56:34.916Z,24.60
2022-09-02T10:59:12.941Z,24.60
2022-09-02T11:01:51.042Z,24.60
2022-09-02T11:04:46.262Z,24.60
2022-09-02T11:07:17.185Z,24.70
2022-09-02T11:09:46.740Z,24.80
2022-09-02T11:12:15.882Z,24.90
2022-09-02T11:15:06.613Z,24.90
2022-09-02T11:17:44.721Z,24.90
2022-09-02T11:20:41.891Z,25.00
2022-09-02T11:23:38.627Z,25.00
2022-09-02T11:26:11.880Z,25.20
2022-09-02T11:28:58.496Z,25.50
2022-09-02T11:32:03.758Z,25.70
2022-09-02T11:34:35.789Z,25.80
2022-09-02T11:37:10.756Z,26.00
2022-09-02T11:39:54.465Z,26.20
2022-09-02T11:42:50.678Z,26.40
2022-09-02T11:45:54.191Z,26.40
2022-09-02T11:48:30.011Z,26.30
2022-09-02T11:51:34.219Z,26.20
2022-09-02T11:54:01.588Z,26.30
2022-09-02T11:56:56.782Z,26.20
2022-09-02T11:59:52.589Z,26.40
2022-09-02T12:02:43.298Z,26.70
2022-09-02T12:05:44.896Z,27.20
2022-09-02T12:08:39.526Z,27.80
2022-09-02T12:11:07.227Z,28.00
2022-09-02T12:13:37.238Z,28.00
2022-09-02T12:16:30.914Z,27.90
2022-09-02T12:18:58.362Z,28.00
2022-09-02T12:21:25.689Z,27.60
2022-09-02T12:23:55.986Z,27.50
2022-09-02T12:26:28.525Z,27.50
2022-09-02T12:29:11.440Z,27.50
2022-09-02T12:31:43.191Z,27.20
2022-09-02T12:34:25.109Z,27.00
2022-09-02T12:36:52.643Z,27.00
2022-09-02T12:39:27.278Z,27.00
2022-09-02T12:42:11.829Z,26.90
2022-09-02T12:45:14.419Z,26.90
2022-09-02T12:47:50.467Z,26.80
2022-09-02T12:50:41.317Z,26.80
2022-09-02T12:53:38.193Z,26.70
2022-09-02T12:56:06.939Z,26.50
2022-09-02T12:58:35.906Z,26.40
2022-09-02T13:01:21.313Z,26.50
2022-09-02T13:04:03.494Z,26.60
2022-09-02T13:06:35.009Z,26.40
2022-09-02T13:09:16.929Z,26.30
2022-09-02T13:12:19.398Z,26.40
2022-09-02T13:15:01.183Z,26.40
2022-09-02T13:18:01.582Z,26.30
2022-09-02T13:20:56.017Z,26.30
2022-09-02T13:24:00.752Z,26.10
2022-09-02T13:26:50.311Z,26.20
2022-09-02T13:29:51.771Z,26.30
2022-09-02T13:32:22.922Z,26.30
2022-09-02T13:34:51.703Z,26.30
2022-09-02T13:37:43.440Z,26.20
2022-09-02T13:40:23.143Z,26.10
2022-09-02T13:42:51.595Z,26.00
2022-09-02T13:45:23.975Z,26.00
2022-09-02T13:47:54.992Z,25.80
2022-09-02T13:50:26.904Z,25.60
2022-09-02T13:55:49.427Z,25.50
2022-09-02T13:58:29.869Z,25.50
2022-09-02T14:01:21.471Z,25.50
2022-09-02T14:03:51.450Z,25.20
2022-09-02T14:06:20.254Z,25.10
2022-09-02T14:08:56.048Z,25.10
2022-09-02T14:11:22.711Z,25.00
2022-09-02T14:13:49.798Z,24.80
2022-09-02T14:16:26.796Z,24.80
2022-09-02T14:19:21.707Z,24.70
2022-09-02T14:21:58.552Z,24.50
2022-09-02T14:24:27.695Z,24.50
2022-09-02T14:26:58.214Z,24.40
2022-09-02T14:29:25.142Z,24.40
2022-09-02T14:32:21.254Z,24.40
2022-09-02T14:34:48.424Z,24.60
2022-09-02T14:37:24.020Z,24.60
2022-09-02T14:40:12.220Z,24.70
2022-09-02T14:42:46.591Z,24.70
2022-09-02T14:45:13.572Z,24.70
2022-09-02T14:47:40.815Z,24.70
2022-09-02T14:50:12.757Z,24.50
2022-09-02T14:52:44.547Z,24.40
2022-09-02T14:55:50.321Z,24.40
2022-09-02T14:58:17.411Z,24.30
2022-09-02T15:00:51.368Z,24.10
2022-09-02T15:03:18.335Z,24.00
2022-09-02T15:05:45.175Z,24.00
2022-09-02T15:08:12.278Z,24.00
2022-09-02T15:10:42.260Z,24.00
2022-09-02T15:13:12.239Z,24.00
2022-09-02T15:15:39.741Z,24.00
2022-09-02T15:18:06.543Z,24.10
2022-09-02T15:20:35.996Z,24.10
2022-09-02T15:23:03.213Z,24.10
2022-09-02T15:25:30.170Z,24.00
2022-09-02T15:27:57.386Z,23.90
2022-09-02T15:30:24.274Z,23.80
2022-09-02T15:32:51.187Z,23.70
2022-09-02T15:35:18.029Z,23.70
2022-09-02T15:37:44.847Z,23.70
2022-09-02T15:40:11.723Z,23.60
2022-09-02T15:42:38.726Z,23.60
2022-09-02T15:45:06.630Z,23.60
2022-09-02T15:47:35.354Z,23.60
2022-09-02T15:50:02.094Z,23.60
2022-09-02T15:52:28.802Z,23.60
2022-09-02T15:54:55.463Z,23.60
2022-09-02T15:57:22.207Z,23.60
2022-09-02T15:59:49.010Z,23.70
2022-09-02T16:02:15.949Z,23.70
2022-09-02T16:04:43.071Z,23.70
2022-09-02T16:07:09.870Z,23.70
2022-09-02T16:09:43.523Z,23.70
2022-09-02T16:12:10.552Z,23.90
2022-09-02T16:14:37.301Z,24.00
2022-09-02T16:17:04.211Z,24.10
2022-09-02T16:19:31.075Z,24.20
2022-09-02T16:21:57.899Z,24.40
2022-09-02T16:24:24.653Z,24.40
2022-09-02T16:26:51.589Z,24.40
2022-09-02T16:29:18.552Z,24.40
2022-09-02T16:32:01.944Z,24.40
2022-09-02T16:34:33.643Z,24.40
2022-09-02T16:37:00.749Z,24.40
2022-09-02T16:39:27.638Z,24.40
2022-09-02T16:41:54.520Z,24.30
2022-09-02T16:44:22.758Z,24.20
2022-09-02T16:46:50.097Z,24.20
2022-09-02T16:49:21.053Z,24.10
2022-09-02T16:51:48.897Z,24.10
2022-09-02T16:54:21.089Z,24.00
2022-09-02T16:56:55.038Z,23.90
2022-09-02T16:59:21.745Z,23.90
2022-09-02T17:01:48.613Z,23.90
2022-09-02T17:04:15.490Z,23.90
2022-09-02T17:06:42.478Z,24.00
2022-09-02T17:09:09.293Z,23.90
2022-09-02T17:11:37.851Z,23.90
2022-09-02T17:14:12.075Z,24.00
2022-09-02T17:16:45.027Z,24.10
2022-09-02T17:19:14.523Z,24.00
2022-09-02T17:21:45.312Z,23.90
2022-09-02T17:24:12.607Z,23.80
2022-09-02T17:26:40.856Z,23.70
2022-09-02T17:29:26.306Z,23.60
2022-09-02T17:31:58.894Z,23.50
2022-09-02T17:34:26.197Z,23.40
2022-09-02T17:36:53.428Z,23.40
2022-09-02T17:39:20.519Z,23.40
2022-09-02T17:41:57.464Z,23.50
2022-09-02T17:44:35.703Z,23.50
2022-09-02T17:47:07.427Z,23.50
2022-09-02T17:49:36.395Z,23.40
2022-09-02T17:52:07.532Z,23.30
2022-09-02T17:54:38.342Z,23.10
2022-09-02T17:57:42.641Z,23.00
2022-09-02T18:00:14.929Z,22.90
2022-09-02T18:03:08.369Z,22.80
2022-09-02T18:05:56.626Z,22.70
2022-09-02T18:08:54.197Z,22.60
2022-09-02T18:11:22.610Z,22.40
2022-09-02T18:14:13.658Z,22.30
2022-09-02T18:16:51.519Z,22.20
2022-09-02T18:19:39.418Z,22.20
2022-09-02T18:22:35.951Z,22.10
2022-09-02T18:25:24.180Z,22.00
2022-09-02T18:28:13.419Z,22.00
2022-09-02T18:30:59.917Z,21.90
2022-09-02T18:33:32.826Z,21.80
2022-09-02T18:36:11.455Z,21.70
2022-09-02T18:39:11.311Z,21.70
2022-09-02T18:41:49.770Z,21.60
2022-09-02T18:44:45.993Z,21.50
2022-09-02T18:47:15.107Z,21.50
2022-09-02T18:49:41.831Z,21.40
2022-09-02T18:52:10.457Z,21.30
2022-09-02T18:54:47.701Z,21.20
2022-09-02T18:57:14.793Z,21.10
2022-09-02T18:59:49.791Z,21.00
2022-09-02T19:02:26.878Z,21.00
2022-09-02T19:04:56.907Z,20.90
2022-09-02T19:07:42.801Z,20.80
2022-09-02T19:10:09.785Z,20.80
2022-09-02T19:12:36.662Z,20.80
2022-09-02T19:15:06.414Z,20.70
2022-09-02T19:17:33.069Z,20.70
2022-09-02T19:19:59.771Z,20.60
2022-09-02T19:22:28.308Z,20.60
2022-09-02T19:24:58.567Z,20.60
2022-09-02T19:27:30.611Z,20.50
2022-09-02T19:30:24.620Z,20.40
2022-09-02T19:32:52.991Z,20.40
2022-09-02T19:35:22.474Z,20.40
2022-09-02T19:37:51.701Z,20.40
2022-09-02T19:40:23.501Z,20.40
2022-09-02T19:42:54.159Z,20.40
2022-09-02T19:45:21.886Z,20.30
2022-09-02T19:48:06.584Z,20.30
2022-09-02T19:50:35.637Z,20.30
2022-09-02T19:53:02.753Z,20.30
2022-09-02T19:55:29.826Z,20.20
2022-09-02T19:57:56.550Z,20.20
2022-09-02T20:00:23.318Z,20.20
2022-09-02T20:02:51.087Z,20.10
2022-09-02T20:05:17.856Z,20.10
2022-09-02T20:07:44.622Z,20.10
2022-09-02T20:10:11.772Z,20.10
2022-09-02T20:12:38.527Z,20.10
2022-09-02T20:15:06.831Z,20.00
2022-09-02T20:17:33.588Z,20.00
2022-09-02T20:20:05.896Z,20.00
2022-09-02T20:22:34.785Z,20.00
2022-09-02T20:25:01.472Z,20.00
2022-09-02T20:27:40.492Z,20.00
2022-09-02T20:30:14.739Z,20.00
2022-09-02T20:32:44.584Z,20.00
2022-09-02T20:35:34.017Z,20.00
2022-09-02T20:38:40.582Z,19.90
2022-09-02T20:41:37.626Z,19.90
2022-09-02T20:44:16.039Z,19.90
2022-09-02T20:47:10.082Z,19.90
2022-09-02T20:49:56.823Z,19.90
2022-09-02T20:52:48.997Z,19.90
2022-09-02T20:55:25.911Z,19.80
2022-09-02T20:58:15.800Z,19.80
2022-09-02T21:00:53.384Z,19.80
2022-09-02T21:03:21.070Z,19.70
2022-09-02T21:05:50.956Z,19.70
2022-09-02T21:08:24.494Z,19.70
2022-09-02T21:10:56.692Z,19.60
2022-09-02T21:13:38.692Z,19.60
2022-09-02T21:16:11.536Z,19.60
2022-09-02T21:18:52.095Z,19.60
2022-09-02T21:21:29.930Z,19.60
2022-09-02T21:24:13.635Z,19.60
2022-09-02T21:26:51.126Z,19.60
2022-09-02T21:29:25.031Z,19.50
2022-09-02T21:32:27.555Z,19.50
2022-09-02T21:35:02.767Z,19.50
2022-09-02T21:37:31.836Z,19.40
2022-09-02T21:40:06.172Z,19.40
2022-09-02T21:42:52.269Z,19.40
2022-09-02T21:45:25.466Z,19.40
2022-09-02T21:48:15.089Z,19.30
2022-09-02T21:50:55.283Z,19.30
2022-09-02T21:53:30.646Z,19.30
2022-09-02T21:56:12.631Z,19.20
2022-09-02T21:59:21.324Z,19.20
2022-09-02T22:02:26.585Z,19.10
2022-09-02T22:05:02.287Z,19.10
2022-09-02T22:07:51.637Z,19.00
2022-09-02T22:10:18.302Z,18.90
2022-09-02T22:12:50.088Z,18.90
2022-09-02T22:15:23.218Z,18.80
2022-09-02T22:17:53.138Z,18.80
2022-09-02T22:20:32.158Z,18.70
2022-09-02T22:23:15.510Z,18.70
2022-09-02T22:25:43.254Z,18.60
2022-09-02T22:28:13.055Z,18.60
2022-09-02T22:30:44.079Z,18.50
2022-09-02T22:33:13.740Z,18.50
2022-09-02T22:35:54.328Z,18.40
2022-09-02T22:38:26.489Z,18.40
2022-09-02T22:41:02.190Z,18.30
2022-09-02T22:43:36.078Z,18.20
2022-09-02T22:46:29.101Z,18.10
2022-09-02T22:49:20.286Z,18.10
2022-09-02T22:52:17.103Z,18.10
2022-09-02T22:54:43.797Z,18.10
2022-09-02T22:57:48.961Z,18.10
2022-09-02T23:00:16.037Z,18.10
2022-09-02T23:02:53.306Z,18.00
2022-09-02T23:06:01.138Z,18.00
2022-09-02T23:08:27.835Z,18.00
2022-09-02T23:11:11.699Z,17.90
2022-09-02T23:13:56.800Z,17.90
2022-09-02T23:16:54.322Z,17.80
2022-09-02T23:19:36.061Z,17.70
2022-09-02T23:22:25.063Z,17.60
2022-09-02T23:25:06.483Z,17.50
2022-09-02T23:27:39.701Z,17.50
2022-09-02T23:30:07.220Z,17.40
2022-09-02T23:33:19.806Z,17.40
2022-09-02T23:36:11.654Z,17.30
2022-09-02T23:38:44.187Z,17.40
2022-09-02T23:41:11.993Z,17.30
2022-09-02T23:43:39.517Z,17.30
2022-09-02T23:46:32.359Z,17.20
2022-09-02T23:49:22.182Z,17.20
2022-09-02T23:51:56.845Z,17.20
2022-09-02T23:54:33.324Z,17.10
2022-09-02T23:57:16.145Z,17.10
2022-09-02T23:59:51.843Z,17.00
